Mason City Municipal Airport Mason City US
ICAO: KMCW
IATA: MCW
Category: Medium
Scheduled Services: No

Elevation: 1213 ft
TransAlt. 18000 ft.

Airport Communications:
ASOS:120.3
MINNEAPOLIS CNTR:127.3
FORT DODGE RDO:122.6
CTAF/UNICOM:123

KMCW Zoom In..

If Map Doesn't Load, Click Here

Runways:

(A) RW 12 length 5502 ft width 150 ft
---- / hdg 120

(B) RW 18 length 6501 ft width 150 ft
---- / hdg 175

(C) RW 30 length 5502 ft width 150 ft
---- / hdg 300

(D) RW 36 length 6501 ft width 150 ft
ILS 109.50 / hdg 355

Location; KMCW
Day. 26 / Time. 09.53 Zulu
* Altimeter: 30.10
* Temperature: 08° c. 46.4°f.
* Wind from: 280° Speed 09 kn.
Dewpoint: 07° c.
Visibility: 10 Statute Miles.
Clouds: Clear (automated report).

KMCW 260953Z AUTO 28009KT 10SM CLR 08/07 A3010 RMK AO2 SLP191 T00780067 $


Wind From 280°
Speed 09 kn.

 
 
jpsmedia.com for Web Design worldairports.se 2018   terms of use